Terminal Aerodrome Forecast
Issued by NWS

Home | Current Version | Previous Version | Graphics & Text | Print | Product List | Glossary On
Versions: 1 2 3 4 5 6 7 8 9 10 11 12 13 14 15 16
000
FTUS43 KBIS 251132
TAFJMS
TAF
KJMS 251132Z 2512/2612 31009KT P6SM SCT060 BKN090
     FM251900 32011KT P6SM -SHRA VCTS SCT045 BKN070CB
     FM252200 32010KT P6SM FEW050 SCT090
     FM260000 35011KT P6SM SCT070
     FM260300 36007KT P6SM SKC=

USA.gov is the U.S. government's official web portal to all federal, state and local government web resources and services.